sensor_id;sensor_type;location;lat;lon;timestamp;pressure;altitude;pressure_sealevel;temperature;humidity
6038;BME280;3047;42.600;23.470;2023-01-29T00:02:05;93042.38;;;0.72;100.00
6038;BME280;3047;42.600;23.470;2023-01-29T00:04:33;93052.28;;;0.68;100.00
6038;BME280;3047;42.600;23.470;2023-01-29T00:07:00;93015.69;;;0.50;100.00
6038;BME280;3047;42.600;23.470;2023-01-29T00:09:27;93053.19;;;0.76;100.00
6038;BME280;3047;42.600;23.470;2023-01-29T00:11:54;93055.75;;;0.85;100.00
6038;BME280;3047;42.600;23.470;2023-01-29T00:14:21;93059.03;;;0.84;100.00
6038;BME280;3047;42.600;23.470;2023-01-29T00:16:47;93069.88;;;0.89;100.00
6038;BME280;3047;42.600;23.470;2023-01-29T00:19:14;93065.66;;;0.82;100.00
6038;BME280;3047;42.600;23.470;2023-01-29T00:21:43;93061.56;;;0.87;100.00
6038;BME280;3047;42.600;23.470;2023-01-29T00:24:10;93034.91;;;0.69;100.00
6038;BME280;3047;42.600;23.470;2023-01-29T00:26:36;93065.78;;;1.01;100.00
6038;BME280;3047;42.600;23.470;2023-01-29T00:29:04;92985.78;;;0.38;100.00
6038;BME280;3047;42.600;23.470;2023-01-29T00:31:31;93070.69;;;0.90;100.00
6038;BME280;3047;42.600;23.470;2023-01-29T00:33:58;93064.06;;;0.90;100.00
6038;BME280;3047;42.600;23.470;2023-01-29T00:36:26;93061.44;;;0.70;100.00
6038;BME280;3047;42.600;23.470;2023-01-29T00:38:55;93071.44;;;0.80;100.00
6038;BME280;3047;42.600;23.470;2023-01-29T00:41:25;93051.44;;;0.66;100.00
6038;BME280;3047;42.600;23.470;2023-01-29T00:44:10;93069.72;;;0.72;100.00
6038;BME280;3047;42.600;23.470;2023-01-29T00:46:54;93071.44;;;0.78;100.00
6038;BME280;3047;42.600;23.470;2023-01-29T00:49:21;93066.50;;;0.83;100.00
6038;BME280;3047;42.600;23.470;2023-01-29T00:51:48;93078.16;;;0.90;100.00
6038;BME280;3047;42.600;23.470;2023-01-29T00:54:30;93068.13;;;0.81;100.00
6038;BME280;3047;42.600;23.470;2023-01-29T00:56:57;93076.44;;;0.81;100.00
6038;BME280;3047;42.600;23.470;2023-01-29T00:59:24;93040.47;;;0.41;100.00
6038;BME280;3047;42.600;23.470;2023-01-29T01:01:50;93071.28;;;0.60;100.00
6038;BME280;3047;42.600;23.470;2023-01-29T01:04:35;93065.50;;;0.62;100.00
6038;BME280;3047;42.600;23.470;2023-01-29T01:07:01;93006.38;;;0.28;100.00
6038;BME280;3047;42.600;23.470;2023-01-29T01:09:29;93065.59;;;0.74;100.00
6038;BME280;3047;42.600;23.470;2023-01-29T01:12:14;93041.41;;;0.55;100.00
6038;BME280;3047;42.600;23.470;2023-01-29T01:14:41;93071.41;;;0.73;100.00
6038;BME280;3047;42.600;23.470;2023-01-29T01:17:09;93057.16;;;0.56;100.00
6038;BME280;3047;42.600;23.470;2023-01-29T01:19:35;93064.69;;;0.62;100.00
6038;BME280;3047;42.600;23.470;2023-01-29T01:22:02;93047.25;;;0.57;100.00
6038;BME280;3047;42.600;23.470;2023-01-29T01:24:31;93057.16;;;0.56;100.00
6038;BME280;3047;42.600;23.470;2023-01-29T01:26:58;93059.66;;;0.59;100.00
6038;BME280;3047;42.600;23.470;2023-01-29T01:29:25;93046.38;;;0.54;100.00
6038;BME280;3047;42.600;23.470;2023-01-29T01:31:52;93060.47;;;0.56;100.00
6038;BME280;3047;42.600;23.470;2023-01-29T01:34:19;93058.00;;;0.61;100.00
6038;BME280;3047;42.600;23.470;2023-01-29T01:36:46;93033.84;;;0.44;100.00
6038;BME280;3047;42.600;23.470;2023-01-29T01:39:13;93023.88;;;0.38;100.00
6038;BME280;3047;42.600;23.470;2023-01-29T01:41:41;93052.22;;;0.57;100.00
6038;BME280;3047;42.600;23.470;2023-01-29T01:47:07;93063.00;;;0.62;100.00
6038;BME280;3047;42.600;23.470;2023-01-29T01:49:34;93072.97;;;0.64;100.00
6038;BME280;3047;42.600;23.470;2023-01-29T01:52:01;93068.91;;;0.73;100.00
6038;BME280;3047;42.600;23.470;2023-01-29T01:54:30;93072.09;;;0.60;100.00
6038;BME280;3047;42.600;23.470;2023-01-29T01:57:03;92839.88;;;-0.85;100.00
6038;BME280;3047;42.600;23.470;2023-01-29T01:59:42;93082.91;;;0.64;100.00
6038;BME280;3047;42.600;23.470;2023-01-29T02:02:12;93077.94;;;0.64;100.00
6038;BME280;3047;42.600;23.470;2023-01-29T02:04:56;93087.84;;;0.61;100.00
6038;BME280;3047;42.600;23.470;2023-01-29T02:07:43;93085.41;;;0.68;100.00
6038;BME280;3047;42.600;23.470;2023-01-29T02:10:29;93078.81;;;0.69;100.00
6038;BME280;3047;42.600;23.470;2023-01-29T02:12:59;93014.75;;;0.36;100.00
6038;BME280;3047;42.600;23.470;2023-01-29T02:15:25;93078.03;;;0.74;100.00
6038;BME280;3047;42.600;23.470;2023-01-29T02:17:52;93082.94;;;0.67;100.00
6038;BME280;3047;42.600;23.470;2023-01-29T02:20:22;93085.41;;;0.67;100.00
6038;BME280;3047;42.600;23.470;2023-01-29T02:23:23;93085.41;;;0.67;100.00
6038;BME280;3047;42.600;23.470;2023-01-29T02:26:10;93089.56;;;0.68;100.00
6038;BME280;3047;42.600;23.470;2023-01-29T02:28:44;93062.09;;;0.53;100.00
6038;BME280;3047;42.600;23.470;2023-01-29T02:31:22;93068.75;;;0.54;100.00
6038;BME280;3047;42.600;23.470;2023-01-29T02:33:57;93056.22;;;0.44;100.00
6038;BME280;3047;42.600;23.470;2023-01-29T02:36:31;93095.47;;;0.79;100.00
6038;BME280;3047;42.600;23.470;2023-01-29T02:39:08;93098.75;;;0.73;100.00
6038;BME280;3047;42.600;23.470;2023-01-29T02:41:42;93079.50;;;0.54;100.00
6038;BME280;3047;42.600;23.470;2023-01-29T02:44:19;93106.13;;;0.66;100.00
6038;BME280;3047;42.600;23.470;2023-01-29T02:46:52;93103.63;;;0.63;100.00
6038;BME280;3047;42.600;23.470;2023-01-29T02:49:29;93031.91;;;0.08;100.00
6038;BME280;3047;42.600;23.470;2023-01-29T02:52:01;93107.72;;;0.58;100.00
6038;BME280;3047;42.600;23.470;2023-01-29T02:54:38;93111.84;;;0.60;100.00
6038;BME280;3047;42.600;23.470;2023-01-29T02:57:10;93105.22;;;0.59;100.00
6038;BME280;3047;42.600;23.470;2023-01-29T02:59:46;93110.28;;;0.65;100.00
6038;BME280;3047;42.600;23.470;2023-01-29T03:02:18;93110.91;;;0.46;100.00
6038;BME280;3047;42.600;23.470;2023-01-29T03:04:51;93094.28;;;0.37;100.00
6038;BME280;3047;42.600;23.470;2023-01-29T03:07:26;93109.19;;;0.37;100.00
6038;BME280;3047;42.600;23.470;2023-01-29T03:10:14;93108.41;;;0.44;100.00
6038;BME280;3047;42.600;23.470;2023-01-29T03:12:44;93114.22;;;0.45;100.00
6038;BME280;3047;42.600;23.470;2023-01-29T03:15:17;93113.38;;;0.44;100.00
6038;BME280;3047;42.600;23.470;2023-01-29T03:17:53;93111.78;;;0.51;100.00
6038;BME280;3047;42.600;23.470;2023-01-29T03:20:25;93072.47;;;0.12;100.00
6038;BME280;3047;42.600;23.470;2023-01-29T03:23:00;93113.97;;;0.23;100.00
6038;BME280;3047;42.600;23.470;2023-01-29T03:25:30;93116.56;;;0.31;100.00
6038;BME280;3047;42.600;23.470;2023-01-29T03:28:16;93085.75;;;0.15;100.00
6038;BME280;3047;42.600;23.470;2023-01-29T03:31:04;93098.28;;;0.26;100.00
6038;BME280;3047;42.600;23.470;2023-01-29T03:33:58;93119.81;;;0.26;100.00
6038;BME280;3047;42.600;23.470;2023-01-29T03:36:31;93118.28;;;0.37;100.00
6038;BME280;3047;42.600;23.470;2023-01-29T03:39:03;93077.47;;;0.15;100.00
6038;BME280;3047;42.600;23.470;2023-01-29T03:41:32;93120.78;;;0.38;100.00
6038;BME280;3047;42.600;23.470;2023-01-29T03:44:09;93116.59;;;0.34;100.00
6038;BME280;3047;42.600;23.470;2023-01-29T03:46:48;93119.03;;;0.31;100.00
6038;BME280;3047;42.600;23.470;2023-01-29T03:49:25;93111.63;;;0.33;100.00
6038;BME280;3047;42.600;23.470;2023-01-29T03:51:59;93119.84;;;0.29;100.00
6038;BME280;3047;42.600;23.470;2023-01-29T03:54:32;93121.47;;;0.25;100.00
6038;BME280;3047;42.600;23.470;2023-01-29T03:57:10;93118.16;;;0.26;100.00
6038;BME280;3047;42.600;23.470;2023-01-29T03:59:48;93115.72;;;0.29;100.00
6038;BME280;3047;42.600;23.470;2023-01-29T04:02:21;93113.22;;;0.29;100.00
6038;BME280;3047;42.600;23.470;2023-01-29T04:04:53;93121.59;;;0.40;100.00
6038;BME280;3047;42.600;23.470;2023-01-29T04:07:22;93119.09;;;0.36;100.00
6038;BME280;3047;42.600;23.470;2023-01-29T04:09:53;93062.47;;;0.06;100.00
6038;BME280;3047;42.600;23.470;2023-01-29T04:12:25;93114.97;;;0.39;100.00
6038;BME280;3047;42.600;23.470;2023-01-29T04:14:57;93116.56;;;0.31;100.00
6038;BME280;3047;42.600;23.470;2023-01-29T04:17:30;93127.34;;;0.33;100.00
6038;BME280;3047;42.600;23.470;2023-01-29T04:20:00;93116.47;;;0.20;100.00
6038;BME280;3047;42.600;23.470;2023-01-29T04:22:31;93133.91;;;0.27;100.00
6038;BME280;3047;42.600;23.470;2023-01-29T04:24:59;93129.78;;;0.30;100.00
6038;BME280;3047;42.600;23.470;2023-01-29T04:27:39;93102.34;;;0.19;100.00
6038;BME280;3047;42.600;23.470;2023-01-29T04:30:22;93104.00;;;0.19;100.00
6038;BME280;3047;42.600;23.470;2023-01-29T04:33:04;93128.22;;;0.38;100.00
6038;BME280;3047;42.600;23.470;2023-01-29T04:35:43;93123.31;;;0.41;100.00
6038;BME280;3047;42.600;23.470;2023-01-29T04:38:21;93134.16;;;0.49;100.00
6038;BME280;3047;42.600;23.470;2023-01-29T04:40:59;93130.75;;;0.44;100.00
6038;BME280;3047;42.600;23.470;2023-01-29T04:43:34;93129.09;;;0.43;100.00
6038;BME280;3047;42.600;23.470;2023-01-29T04:46:11;93143.06;;;0.31;100.00
6038;BME280;3047;42.600;23.470;2023-01-29T04:48:50;93143.13;;;0.37;100.00
6038;BME280;3047;42.600;23.470;2023-01-29T04:51:21;93143.00;;;0.28;100.00
6038;BME280;3047;42.600;23.470;2023-01-29T04:53:56;93134.06;;;0.43;100.00
6038;BME280;3047;42.600;23.470;2023-01-29T04:56:34;93143.19;;;0.44;100.00
6038;BME280;3047;42.600;23.470;2023-01-29T04:59:06;93133.16;;;0.35;100.00
6038;BME280;3047;42.600;23.470;2023-01-29T05:01:34;93139.00;;;0.40;100.00
6038;BME280;3047;42.600;23.470;2023-01-29T05:04:05;93147.28;;;0.39;100.00
6038;BME280;3047;42.600;23.470;2023-01-29T05:06:34;93116.50;;;0.27;100.00
6038;BME280;3047;42.600;23.470;2023-01-29T05:09:02;93140.59;;;0.34;100.00
6038;BME280;3047;42.600;23.470;2023-01-29T05:11:30;93123.06;;;0.20;100.00
6038;BME280;3047;42.600;23.470;2023-01-29T05:13:57;93141.44;;;0.34;100.00
6038;BME280;3047;42.600;23.470;2023-01-29T05:16:26;93141.38;;;0.30;100.00
6038;BME280;3047;42.600;23.470;2023-01-29T05:18:53;93153.94;;;0.42;100.00
6038;BME280;3047;42.600;23.470;2023-01-29T05:21:22;93157.28;;;0.47;100.00
6038;BME280;3047;42.600;23.470;2023-01-29T05:24:05;93122.31;;;0.27;100.00
6038;BME280;3047;42.600;23.470;2023-01-29T05:26:32;93168.06;;;0.46;100.00
6038;BME280;3047;42.600;23.470;2023-01-29T05:29:17;93159.66;;;0.35;100.00
6038;BME280;3047;42.600;23.470;2023-01-29T05:31:43;93158.75;;;0.28;100.00
6038;BME280;3047;42.600;23.470;2023-01-29T05:34:10;93169.56;;;0.32;100.00
6038;BME280;3047;42.600;23.470;2023-01-29T05:36:38;93172.84;;;0.29;100.00
6038;BME280;3047;42.600;23.470;2023-01-29T05:39:05;93166.16;;;0.23;100.00
6038;BME280;3047;42.600;23.470;2023-01-29T05:41:32;93170.38;;;0.32;100.00
6038;BME280;3047;42.600;23.470;2023-01-29T05:43:59;93160.28;;;0.18;100.00
6038;BME280;3047;42.600;23.470;2023-01-29T05:46:25;93166.13;;;0.22;100.00
6038;BME280;3047;42.600;23.470;2023-01-29T05:48:52;93172.72;;;0.17;100.00
6038;BME280;3047;42.600;23.470;2023-01-29T05:51:19;93173.59;;;0.20;100.00
6038;BME280;3047;42.600;23.470;2023-01-29T05:53:47;93133.53;;;-0.04;100.00
6038;BME280;3047;42.600;23.470;2023-01-29T05:56:13;93173.63;;;0.25;100.00
6038;BME280;3047;42.600;23.470;2023-01-29T05:58:40;93169.44;;;0.22;100.00
6038;BME280;3047;42.600;23.470;2023-01-29T06:01:08;93177.78;;;0.26;100.00
6038;BME280;3047;42.600;23.470;2023-01-29T06:03:35;93178.63;;;0.28;100.00
6038;BME280;3047;42.600;23.470;2023-01-29T06:06:02;93162.78;;;0.17;100.00
6038;BME280;3047;42.600;23.470;2023-01-29T06:08:29;93188.63;;;0.34;100.00
6038;BME280;3047;42.600;23.470;2023-01-29T06:10:57;93135.19;;;-0.05;100.00
6038;BME280;3047;42.600;23.470;2023-01-29T06:13:24;93193.56;;;0.30;100.00
6038;BME280;3047;42.600;23.470;2023-01-29T06:15:51;93182.50;;;0.08;100.00
6038;BME280;3047;42.600;23.470;2023-01-29T06:18:18;93191.81;;;0.24;100.00
6038;BME280;3047;42.600;23.470;2023-01-29T06:20:45;93185.13;;;0.17;100.00
6038;BME280;3047;42.600;23.470;2023-01-29T06:23:11;93178.41;;;0.08;100.00
6038;BME280;3047;42.600;23.470;2023-01-29T06:25:38;93205.88;;;0.22;100.00
6038;BME280;3047;42.600;23.470;2023-01-29T06:28:06;93175.06;;;0.08;100.00
6038;BME280;3047;42.600;23.470;2023-01-29T06:30:33;93210.84;;;0.20;100.00
6038;BME280;3047;42.600;23.470;2023-01-29T06:33:00;93214.22;;;0.27;100.00
6038;BME280;3047;42.600;23.470;2023-01-29T06:35:27;93177.50;;;0.03;100.00
6038;BME280;3047;42.600;23.470;2023-01-29T06:37:55;93227.34;;;0.17;100.00
6038;BME280;3047;42.600;23.470;2023-01-29T06:40:21;93204.19;;;0.18;100.00
6038;BME280;3047;42.600;23.470;2023-01-29T06:42:48;93225.03;;;0.31;100.00
6038;BME280;3047;42.600;23.470;2023-01-29T06:45:16;93228.28;;;0.25;100.00
6038;BME280;3047;42.600;23.470;2023-01-29T06:47:43;93224.19;;;0.30;100.00
6038;BME280;3047;42.600;23.470;2023-01-29T06:50:10;93232.47;;;0.32;100.00
6038;BME280;3047;42.600;23.470;2023-01-29T06:52:37;93210.88;;;0.25;100.00
6038;BME280;3047;42.600;23.470;2023-01-29T06:55:05;93236.03;;;0.49;100.00
6038;BME280;3047;42.600;23.470;2023-01-29T06:57:32;93242.66;;;0.51;100.00
6038;BME280;3047;42.600;23.470;2023-01-29T06:59:58;93230.25;;;0.52;100.00
6038;BME280;3047;42.600;23.470;2023-01-29T07:02:27;93220.88;;;0.31;100.00
6038;BME280;3047;42.600;23.470;2023-01-29T07:04:54;93228.56;;;0.51;100.00
6038;BME280;3047;42.600;23.470;2023-01-29T07:07:20;93242.41;;;0.32;100.00
6038;BME280;3047;42.600;23.470;2023-01-29T07:09:47;93220.06;;;0.31;100.00
6038;BME280;3047;42.600;23.470;2023-01-29T07:12:14;93089.22;;;-0.43;100.00
6038;BME280;3047;42.600;23.470;2023-01-29T07:14:40;93245.19;;;0.57;100.00
6038;BME280;3047;42.600;23.470;2023-01-29T07:17:07;93234.41;;;0.53;100.00
6038;BME280;3047;42.600;23.470;2023-01-29T07:19:35;93238.50;;;0.51;100.00
6038;BME280;3047;42.600;23.470;2023-01-29T07:22:02;93213.56;;;0.42;100.00
6038;BME280;3047;42.600;23.470;2023-01-29T07:24:30;93250.25;;;0.64;100.00
6038;BME280;3047;42.600;23.470;2023-01-29T07:26:56;93251.13;;;0.66;100.00
6038;BME280;3047;42.600;23.470;2023-01-29T07:29:23;93262.72;;;0.67;100.00
6038;BME280;3047;42.600;23.470;2023-01-29T07:31:50;93257.75;;;0.66;100.00
6038;BME280;3047;42.600;23.470;2023-01-29T07:34:17;93259.41;;;0.68;100.00
6038;BME280;3047;42.600;23.470;2023-01-29T07:36:45;93262.81;;;0.77;100.00
6038;BME280;3047;42.600;23.470;2023-01-29T07:39:11;93263.56;;;0.68;100.00
6038;BME280;3047;42.600;23.470;2023-01-29T07:41:39;93254.50;;;0.71;100.00
6038;BME280;3047;42.600;23.470;2023-01-29T07:44:06;93261.16;;;0.74;100.00
6038;BME280;3047;42.600;23.470;2023-01-29T07:46:32;93266.72;;;0.55;100.00
6038;BME280;3047;42.600;23.470;2023-01-29T07:48:59;93245.09;;;0.46;100.00
6038;BME280;3047;42.600;23.470;2023-01-29T07:51:26;93227.59;;;0.37;100.00
6038;BME280;3047;42.600;23.470;2023-01-29T07:53:54;93260.19;;;0.63;100.00
6038;BME280;3047;42.600;23.470;2023-01-29T07:56:21;93268.44;;;0.60;100.00
6038;BME280;3047;42.600;23.470;2023-01-29T07:58:47;93270.94;;;0.60;100.00
6038;BME280;3047;42.600;23.470;2023-01-29T08:01:15;93273.47;;;0.63;100.00
6038;BME280;3047;42.600;23.470;2023-01-29T08:03:42;93276.00;;;0.68;100.00
6038;BME280;3047;42.600;23.470;2023-01-29T08:06:09;93280.81;;;0.54;100.00
6038;BME280;3047;42.600;23.470;2023-01-29T08:08:35;93250.16;;;0.54;100.00
6038;BME280;3047;42.600;23.470;2023-01-29T08:11:04;93278.59;;;0.77;100.00
6038;BME280;3047;42.600;23.470;2023-01-29T08:13:31;93257.78;;;0.69;100.00
6038;BME280;3047;42.600;23.470;2023-01-29T08:15:59;93282.75;;;0.80;100.00
6038;BME280;3047;42.600;23.470;2023-01-29T08:18:26;93266.91;;;0.70;100.00
6038;BME280;3047;42.600;23.470;2023-01-29T08:20:58;93286.97;;;0.85;100.00
6038;BME280;3047;42.600;23.470;2023-01-29T08:23:24;93287.91;;;0.95;100.00
6038;BME280;3047;42.600;23.470;2023-01-29T08:25:51;93282.16;;;0.99;100.00
6038;BME280;3047;42.600;23.470;2023-01-29T08:28:19;93283.03;;;1.04;100.00
6038;BME280;3047;42.600;23.470;2023-01-29T08:30:46;93292.97;;;1.03;100.00
6038;BME280;3047;42.600;23.470;2023-01-29T08:33:13;93293.00;;;1.06;100.00
6038;BME280;3047;42.600;23.470;2023-01-29T08:35:39;93274.59;;;0.93;100.00
6038;BME280;3047;42.600;23.470;2023-01-29T08:38:07;93256.25;;;0.80;100.00
6038;BME280;3047;42.600;23.470;2023-01-29T08:40:36;93298.06;;;1.15;100.00
6038;BME280;3047;42.600;23.470;2023-01-29T08:43:04;93286.41;;;1.11;100.00
6038;BME280;3047;42.600;23.470;2023-01-29T08:45:35;93306.44;;;1.23;100.00
6038;BME280;3047;42.600;23.470;2023-01-29T08:48:03;93274.72;;;1.04;100.00
6038;BME280;3047;42.600;23.470;2023-01-29T08:50:29;93314.69;;;1.20;100.00
6038;BME280;3047;42.600;23.470;2023-01-29T08:52:59;93311.19;;;1.03;100.00
6038;BME280;3047;42.600;23.470;2023-01-29T08:55:27;93315.34;;;1.03;100.00
6038;BME280;3047;42.600;23.470;2023-01-29T08:57:54;93328.56;;;0.98;100.00
6038;BME280;3047;42.600;23.470;2023-01-29T09:00:21;93324.34;;;0.91;100.00
6038;BME280;3047;42.600;23.470;2023-01-29T09:02:50;93311.94;;;0.94;100.00
6038;BME280;3047;42.600;23.470;2023-01-29T09:05:17;93327.03;;;1.10;100.00
6038;BME280;3047;42.600;23.470;2023-01-29T09:07:44;93329.53;;;1.10;100.00
6038;BME280;3047;42.600;23.470;2023-01-29T09:10:10;93309.41;;;0.90;100.00
6038;BME280;3047;42.600;23.470;2023-01-29T09:12:37;93327.75;;;0.99;100.00
6038;BME280;3047;42.600;23.470;2023-01-29T09:15:05;93323.53;;;0.94;100.00
6038;BME280;3047;42.600;23.470;2023-01-29T09:17:32;93326.91;;;0.97;100.00
6038;BME280;3047;42.600;23.470;2023-01-29T09:20:00;93315.25;;;0.96;100.00
6038;BME280;3047;42.600;23.470;2023-01-29T09:22:27;93288.59;;;0.85;100.00
6038;BME280;3047;42.600;23.470;2023-01-29T09:24:53;93318.91;;;1.26;100.00
6038;BME280;3047;42.600;23.470;2023-01-29T09:27:20;93315.34;;;1.04;100.00
6038;BME280;3047;42.600;23.470;2023-01-29T09:29:47;93317.84;;;1.04;100.00
6038;BME280;3047;42.600;23.470;2023-01-29T09:32:13;93309.63;;;1.11;100.00
6038;BME280;3047;42.600;23.470;2023-01-29T09:34:40;93317.13;;;1.16;100.00
6038;BME280;3047;42.600;23.470;2023-01-29T09:37:08;93303.75;;;1.02;100.00
6038;BME280;3047;42.600;23.470;2023-01-29T09:39:35;93313.72;;;1.06;100.00
6038;BME280;3047;42.600;23.470;2023-01-29T09:42:06;93312.13;;;1.10;100.00
6038;BME280;3047;42.600;23.470;2023-01-29T09:44:50;93291.34;;;1.08;100.00
6038;BME280;3047;42.600;23.470;2023-01-29T09:47:23;93309.59;;;1.07;100.00
6038;BME280;3047;42.600;23.470;2023-01-29T09:49:54;93297.94;;;1.04;100.00
6038;BME280;3047;42.600;23.470;2023-01-29T09:52:25;93305.44;;;1.09;100.00
6038;BME280;3047;42.600;23.470;2023-01-29T09:54:58;93303.00;;;1.13;100.00
6038;BME280;3047;42.600;23.470;2023-01-29T09:57:32;93292.13;;;1.02;100.00
6038;BME280;3047;42.600;23.470;2023-01-29T09:59:59;93294.63;;;1.05;100.00
6038;BME280;3047;42.600;23.470;2023-01-29T10:02:48;93295.50;;;1.09;100.00
6038;BME280;3047;42.600;23.470;2023-01-29T10:05:40;93298.06;;;1.16;100.00
6038;BME280;3047;42.600;23.470;2023-01-29T10:11:23;93288.09;;;1.13;100.00
6038;BME280;3047;42.600;23.470;2023-01-29T10:14:02;93288.81;;;1.05;100.00
6038;BME280;3047;42.600;23.470;2023-01-29T10:16:41;93294.84;;;1.23;100.00
6038;BME280;3047;42.600;23.470;2023-01-29T10:19:39;93290.66;;;1.18;100.00
6038;BME280;3047;42.600;23.470;2023-01-29T10:22:38;93294.84;;;1.25;100.00
6038;BME280;3047;42.600;23.470;2023-01-29T10:25:11;93283.19;;;1.18;100.00
6038;BME280;3047;42.600;23.470;2023-01-29T10:27:46;93280.63;;;1.12;100.00
6038;BME280;3047;42.600;23.470;2023-01-29T10:30:22;93274.72;;;1.04;100.00
6038;BME280;3047;42.600;23.470;2023-01-29T10:32:53;93270.63;;;1.06;100.00
6038;BME280;3047;42.600;23.470;2023-01-29T10:35:22;93274.81;;;1.10;100.00
6038;BME280;3047;42.600;23.470;2023-01-29T10:37:51;93251.59;;;1.12;100.00
6038;BME280;3047;42.600;23.470;2023-01-29T10:40:20;93268.25;;;1.21;100.00
6038;BME280;3047;42.600;23.470;2023-01-29T10:42:54;93255.75;;;1.12;100.00
6038;BME280;3047;42.600;23.470;2023-01-29T10:45:30;93263.31;;;1.24;100.00
6038;BME280;3047;42.600;23.470;2023-01-29T10:48:42;93265.81;;;1.22;100.00
6038;BME280;3047;42.600;23.470;2023-01-29T10:51:21;93269.03;;;1.15;100.00
6038;BME280;3047;42.600;23.470;2023-01-29T10:53:58;93270.72;;;1.16;100.00
6038;BME280;3047;42.600;23.470;2023-01-29T10:56:44;93260.75;;;1.15;100.00
6038;BME280;3047;42.600;23.470;2023-01-29T10:59:31;93256.59;;;1.15;100.00
6038;BME280;3047;42.600;23.470;2023-01-29T11:02:12;93259.97;;;1.19;100.00
6038;BME280;3047;42.600;23.470;2023-01-29T11:04:42;93258.31;;;1.18;100.00
6038;BME280;3047;42.600;23.470;2023-01-29T11:07:09;93253.31;;;1.19;100.00
6038;BME280;3047;42.600;23.470;2023-01-29T11:09:40;93254.13;;;1.17;100.00
6038;BME280;3047;42.600;23.470;2023-01-29T11:12:11;93259.06;;;1.11;100.00
6038;BME280;3047;42.600;23.470;2023-01-29T11:14:43;93253.22;;;1.07;100.00
6038;BME280;3047;42.600;23.470;2023-01-29T11:17:15;93228.34;;;1.06;100.00
6038;BME280;3047;42.600;23.470;2023-01-29T11:19:43;93255.81;;;1.18;100.00
6038;BME280;3047;42.600;23.470;2023-01-29T11:22:12;93249.19;;;1.21;100.00
6038;BME280;3047;42.600;23.470;2023-01-29T11:24:40;93245.91;;;1.24;100.00
6038;BME280;3047;42.600;23.470;2023-01-29T11:27:13;93226.00;;;1.22;100.00
6038;BME280;3047;42.600;23.470;2023-01-29T11:29:44;93248.50;;;1.36;100.00
6038;BME280;3047;42.600;23.470;2023-01-29T11:32:13;93238.56;;;1.38;100.00
6038;BME280;3047;42.600;23.470;2023-01-29T11:34:59;93233.63;;;1.44;100.00
6038;BME280;3047;42.600;23.470;2023-01-29T11:37:32;93230.34;;;1.48;100.00
6038;BME280;3047;42.600;23.470;2023-01-29T11:39:59;93225.38;;;1.48;100.00
6038;BME280;3047;42.600;23.470;2023-01-29T11:42:29;93209.50;;;1.37;100.00
6038;BME280;3047;42.600;23.470;2023-01-29T11:44:59;93227.91;;;1.54;100.00
6038;BME280;3047;42.600;23.470;2023-01-29T11:47:27;93213.81;;;1.55;100.00
6038;BME280;3047;42.600;23.470;2023-01-29T11:49:56;93217.16;;;1.58;100.00
6038;BME280;3047;42.600;23.470;2023-01-29T11:52:25;93213.00;;;1.60;100.00
6038;BME280;3047;42.600;23.470;2023-01-29T11:54:55;93214.72;;;1.69;100.00
6038;BME280;3047;42.600;23.470;2023-01-29T11:57:27;93215.63;;;1.76;100.00
6038;BME280;3047;42.600;23.470;2023-01-29T11:59:57;93211.41;;;1.67;100.00
6038;BME280;3047;42.600;23.470;2023-01-29T12:02:31;93212.22;;;1.63;100.00
6038;BME280;3047;42.600;23.470;2023-01-29T12:05:03;93175.47;;;1.31;100.00
6038;BME280;3047;42.600;23.470;2023-01-29T12:07:31;93212.19;;;1.60;100.00
6038;BME280;3047;42.600;23.470;2023-01-29T12:09:59;93186.41;;;1.52;100.00
6038;BME280;3047;42.600;23.470;2023-01-29T12:12:29;93206.41;;;1.65;100.00
6038;BME280;3047;42.600;23.470;2023-01-29T12:15:15;93207.25;;;1.67;100.00
6038;BME280;3047;42.600;23.470;2023-01-29T12:17:49;93189.78;;;1.60;100.00
6038;BME280;3047;42.600;23.470;2023-01-29T12:20:22;93206.50;;;1.82;100.00
6038;BME280;3047;42.600;23.470;2023-01-29T12:22:55;93213.94;;;1.73;100.00
6038;BME280;3047;42.600;23.470;2023-01-29T12:25:34;93190.59;;;1.56;100.00
6038;BME280;3047;42.600;23.470;2023-01-29T12:28:20;93203.06;;;1.59;100.00
6038;BME280;3047;42.600;23.470;2023-01-29T12:30:56;93179.78;;;1.52;100.00
6038;BME280;3047;42.600;23.470;2023-01-29T12:33:33;93203.84;;;1.52;100.00
6038;BME280;3047;42.600;23.470;2023-01-29T12:36:08;93223.69;;;1.42;100.00
6038;BME280;3047;42.600;23.470;2023-01-29T12:38:38;93222.97;;;1.60;100.00
6038;BME280;3047;42.600;23.470;2023-01-29T12:41:15;93207.16;;;1.52;100.00
6038;BME280;3047;42.600;23.470;2023-01-29T12:43:51;93220.47;;;1.60;100.00
6038;BME280;3047;42.600;23.470;2023-01-29T12:46:22;93219.66;;;1.61;100.00
6038;BME280;3047;42.600;23.470;2023-01-29T12:48:54;93214.63;;;1.54;100.00
6038;BME280;3047;42.600;23.470;2023-01-29T12:51:25;93214.63;;;1.51;100.00
6038;BME280;3047;42.600;23.470;2023-01-29T12:53:57;93214.69;;;1.60;100.00
6038;BME280;3047;42.600;23.470;2023-01-29T12:56:28;93214.72;;;1.63;100.00
6038;BME280;3047;42.600;23.470;2023-01-29T12:58:59;93210.63;;;1.76;100.00
6038;BME280;3047;42.600;23.470;2023-01-29T13:01:31;93204.88;;;1.84;100.00
6038;BME280;3047;42.600;23.470;2023-01-29T13:04:04;93209.84;;;1.81;100.00
6038;BME280;3047;42.600;23.470;2023-01-29T13:06:35;93203.13;;;1.68;100.00
6038;BME280;3047;42.600;23.470;2023-01-29T13:09:11;93186.44;;;1.56;100.00
6038;BME280;3047;42.600;23.470;2023-01-29T13:11:40;93221.38;;;1.67;100.00
6038;BME280;3047;42.600;23.470;2023-01-29T13:14:15;93219.69;;;1.66;100.00
6038;BME280;3047;42.600;23.470;2023-01-29T13:16:47;93212.97;;;1.53;100.00
6038;BME280;3047;42.600;23.470;2023-01-29T13:19:23;93174.66;;;1.31;100.00
6038;BME280;3047;42.600;23.470;2023-01-29T13:21:53;93213.78;;;1.53;100.00
6038;BME280;3047;42.600;23.470;2023-01-29T13:24:24;93210.50;;;1.57;100.00
6038;BME280;3047;42.600;23.470;2023-01-29T13:26:52;93201.38;;;1.56;100.00
6038;BME280;3047;42.600;23.470;2023-01-29T13:29:21;93210.47;;;1.53;100.00
6038;BME280;3047;42.600;23.470;2023-01-29T13:31:49;93166.28;;;1.26;100.00
6038;BME280;3047;42.600;23.470;2023-01-29T13:34:21;93221.19;;;1.45;100.00
6038;BME280;3047;42.600;23.470;2023-01-29T13:36:52;93227.06;;;1.52;100.00
6038;BME280;3047;42.600;23.470;2023-01-29T13:39:23;93229.59;;;1.61;100.00